Christian Cyclist Club

join us

Aug 20th

Hammerfest welcomes all caliber cyclist. Road racers, Critirum, Moatian Bike racers. Come see how you stack up against your peers.

Not everyone inspires to compete all year at a racers level; however, they would love to see how they fare against racers for one event

Many clubs train together weekly and enjoy opportunities to represent as a club/team versus an individual cyclist. Hammerfest is the place to show up and show out!!

Hammerfest depends on Volunteers helping our Fast Group Ride be an exceptional event leaving lasting memories. Our support team is one of the secrets to our Ride being successful.

The H-Route is a Strava Segment; therefore, it allows us to gather our cycling analytics after the event has ended. However, you must follow the course as routed for this to happen. Please see “Frequently Asked Questions" for more info.

PinoCasino w Polsce - oferty

Strona oferuje graczom dostęp do dziesięciopoziomowego programu VIP. Dzięki temu można stale otrzymywać więcej premii i korzyści. Każdy poziom, na który się wspinasz, przynosi darmowe spiny, których liczba zależy od poziomu, na którym się znajdujesz. Im wyższy poziom osiągniesz, tym lepsze nagrody otrzymasz. Dostępnych jest 10 poziomów VIP, ale jedenasty poziom "Czarny" jest dostępny wyłącznie na zaproszenie. Korzyści z awansu na wyższy poziom obejmują darmowe spiny i bonusy gotówkowe w PinoCasino.

Inne zalety PinoCasino to cotygodniowe dodatkowe bonusy od depozytu i darmowe spiny, bonus urodzinowy oraz comiesięczny zwrot gotówki. Czasami oferowane są również prezenty niespodzianki.

(Click Map Below to Download)

Join our TEAM OF SPONSORS Businesses, Race Team, and Local Clubs

(Hammerfest 2022 Growing Roster)

0
A Group (21+ mph)
0
B Group (19 to 21 mph)
0
C & D Group (18mph and Below)

Hammerfest 2021
"KOM & QOM"

Golden Crown

Last Year's Results

Meet last year’s KOM and QOM of Hammerfest 2021. We are excited to host another Hammerfest Fast Group Ride featuring the “CATCH ME IF YOU CAN.”   Our KOM and QOM will meet you on the road to defend their crowns.

NumberName DaeMiles Avg. Heart Rate Avg PowerRolling Time Notes
1Rafael Araujo2021-10-16 00:00:0023.1mi/h142bpm250W1970-01-01 01:52:26KOM -STRAVA
2Fabio Brancati2021-10-16 00:00:0023.1mi/h162bpm277W 1970-01-01 01:52:26KOM -STRAVA
3Fritz Metz2021-10-16 00:00:0022.1mi/h-221W1970-01-01 01:57:22
4Andrea Baldi2021-10-16 00:00:0022.1mi/h-215W1970-01-01 01:57:26
5Raf K 🇵🇱+🇺🇸2021-10-16 00:00:0022.1mi/h162bpm207W 1970-01-01 01:57:28
5Nick Gornick2021-10-16 00:00:0022.1mi/h-194W 1970-01-01 01:57:28
7jon alumbaugh2021-10-16 00:00:0021.3mi/h155bpm312W1970-01-01 02:02:08
8Manny Ponce2021-10-16 00:00:0021.3mi/h156bpm199W1970-01-01 02:02:11
9Toan Tran2021-10-16 00:00:0021.3mi/h169bpm186W 1970-01-01 02:02:18
10Glenn De Guzman🇵🇭🇺🇸2021-10-17 00:00:0021.1mi/h168bpm177W ** Manual
11Caio Almeida Amaro2021-10-16 00:00:0020.4mi/h162bpm183W1970-01-01 02:07:06
12John Hester2021-10-16 00:00:0020.4mi/h164bpm181W1970-01-01 02:07:09
13Tom K2021-10-16 00:00:0020.4mi/h148bpm180W1970-01-01 02:07:14
13Anna Marie Lubelski 2021-10-16 00:00:0020.4mi/h168bpm236W 1970-01-01 02:07:14QOM -STRAVA
15John Magruder2021-10-16 00:00:0020.1mi/h166bpm174W1970-01-01 02:09:20
16Ken Gipson2021-10-16 00:00:0020.0mi/h153bpm216W 1970-01-01 02:10:03
17Alek Czernobil2021-10-16 00:00:0020.0mi/h153bpm205W 1970-01-01 02:10:14
18STEPHEN RAMIRO2021-10-16 00:00:0020.0mi/h173bpm160W1970-01-01 02:10:16
19Rachel Truitt Carlson2021-10-16 00:00:0019.9mi/h** Manual
20Cross the Christian Cyclist2021-10-16 00:00:0019.7mi/h160bpm190W 1970-01-01 02:11:56
20Andre Spiller2021-10-16 00:00:0019.7mi/h170bpm154W1970-01-01 02:11:56
22Fernando Dobal2021-10-16 00:00:0019.4mi/h158bpm-1970-01-01 02:14:01
23Lana Bernico2021-10-16 00:00:0019.4mi/h--1970-01-01 02:14:14
24Bernard Oyoo2021-10-16 00:00:0019.4mi/h-154W1970-01-01 02:14:19
25Ivan Tate2021-10-16 00:00:0019.2mi/h126bpm156W1970-01-01 02:15:02
26Stan Jones2021-10-16 00:00:0019.1mi/h150bpm1970-01-01 02:24:36** Manual
27Ben James Lonzaga2021-10-16 00:00:0019.0mi/h170bpm148W1970-01-01 02:16:51
28Ven Sherrod2021-10-16 00:00:00 18.3mi/h176bpm169W1970-01-01 02:28:04** Manual
29Mike Nichols2021-10-16 00:00:0018.3mi/h158bpm176W 1970-01-01 02:22:09
30Jonathan Akyea2021-10-16 00:00:0018.0mi/h140bpm136W1970-01-01 02:24:01
30Mark Brimstone2021-10-16 00:00:0018.0mi/h-229W1970-01-01 02:24:01
32Ray Wijangco2021-10-16 00:00:0018.0mi/h164bpm243W 1970-01-01 02:24:44
33Callebe Gomes2021-10-16 00:00:0017.9mi/h179bpm195W 1970-01-01 02:25:06
34Joseph Brannigan2021-10-16 00:00:0017.9mi/h--1970-01-01 02:25:09
35Kima Rivera2021-10-16 00:00:0017.1mi/h155bpm147W1970-01-01 02:32:24
36Jason Jarrett2021-10-16 00:00:0017.0mi/h-118W1970-01-01 02:32:43
37Claudio Ladeira2021-10-16 00:00:0016.3mi/h--1970-01-01 02:38:58
38Dar Ben2021-10-16 00:00:0016.3mi/h-94W1970-01-01 02:38:59
39Frank Zmuda2021-10-16 00:00:0016.3mi/h148bpm106W1970-01-01 02:39:24
40Donnie Seals 2021-10-16 00:00:0014.5mi/h 143bpm 98W1970-01-01 03:11:24** Manual
41Christie Hester2021-10-16 00:00:0012.9mi/h-64W1970-01-01 03:20:47

We're inviting you to join Hammerfest "Catch Me If You Can" 2022